Time;durP1;ratioP1;P1;durP2;ratioP2;P2;SDS_P1;SDS_P2;PMS_P1;PMS_P2;Temp;Humidity;BMP_temperature;BMP_pressure;BME280_temperature;BME280_humidity;BME280_pressure;Samples;Min_cycle;Max_cycle;Signal;HPM_P1;HPM_P2
2021/12/26 00:00:42;;;;;;;19.48;17.38;;;;;;;3.98;89.22;99460.34;5042449;28;20406;-89
2021/12/26 00:03:07;;;;;;;20.38;17.23;;;;;;;4.08;88.68;99462.47;5034690;28;20510;-88
2021/12/26 00:05:33;;;;;;;21.08;17.55;;;;;;;4.02;88.59;99464.19;5038116;28;20938;-89
2021/12/26 00:07:58;;;;;;;19.53;17.40;;;;;;;4.03;88.85;99465.00;5046576;28;20394;-89
2021/12/26 00:10:25;;;;;;;21.53;17.53;;;;;;;4.11;88.15;99464.72;5051822;28;20399;-88
2021/12/26 00:12:51;;;;;;;19.98;17.80;;;;;;;4.23;88.28;99472.78;5038119;28;20403;-88
2021/12/26 00:15:18;;;;;;;22.00;19.20;;;;;;;4.29;87.88;99474.53;5043660;28;20395;-88
2021/12/26 00:17:43;;;;;;;19.45;17.20;;;;;;;4.30;87.63;99466.28;5041636;28;20405;-89
2021/12/26 00:20:11;;;;;;;24.37;17.57;;;;;;;4.20;87.62;99466.00;5041760;28;20777;-88
2021/12/26 00:22:37;;;;;;;22.00;17.83;;;;;;;4.21;87.46;99462.28;5045333;28;20414;-89
2021/12/26 00:25:05;;;;;;;19.85;17.77;;;;;;;4.09;87.75;99461.41;5047439;28;20426;-87
2021/12/26 00:27:30;;;;;;;20.92;18.48;;;;;;;4.12;87.09;99460.97;5036029;28;20396;-89
2021/12/26 00:29:56;;;;;;;20.80;18.47;;;;;;;3.93;87.68;99454.00;5043679;28;20733;-88
2021/12/26 00:32:21;;;;;;;21.20;17.60;;;;;;;3.86;88.21;99464.81;5050869;28;20397;-89
2021/12/26 00:34:50;;;;;;;20.45;18.27;;;;;;;3.76;88.46;99453.81;5064177;28;20449;-88
2021/12/26 00:37:15;;;;;;;20.05;17.58;;;;;;;3.84;88.16;99460.72;5050380;28;20401;-89
2021/12/26 00:39:41;;;;;;;21.85;18.77;;;;;;;3.83;88.16;99457.22;5037906;28;20419;-88
2021/12/26 00:42:06;;;;;;;20.23;18.13;;;;;;;3.80;88.12;99459.53;5032427;28;20816;-88
2021/12/26 00:44:34;;;;;;;20.30;18.13;;;;;;;3.77;88.76;99452.78;5051793;28;20503;-88
2021/12/26 00:46:59;;;;;;;22.42;18.75;;;;;;;3.76;89.06;99451.13;5048699;28;20769;-88
2021/12/26 00:49:25;;;;;;;19.87;17.73;;;;;;;3.64;88.89;99444.91;5043037;28;20494;-89
2021/12/26 00:51:50;;;;;;;21.03;18.90;;;;;;;3.67;89.58;99442.59;5032427;28;20434;-89
2021/12/26 00:54:17;;;;;;;20.52;18.33;;;;;;;3.66;88.87;99440.94;5040300;28;20490;-88
2021/12/26 00:56:42;;;;;;;21.50;18.90;;;;;;;3.78;89.08;99437.50;5041765;28;20499;-88
2021/12/26 00:59:07;;;;;;;19.90;17.80;;;;;;;3.83;88.52;99437.63;5032358;28;20442;-89
2021/12/26 01:01:33;;;;;;;20.02;17.90;;;;;;;3.55;88.87;99439.03;5047697;28;20535;-89
2021/12/26 01:03:59;;;;;;;20.43;18.27;;;;;;;3.57;89.08;99438.78;5036036;28;20400;-89
2021/12/26 01:06:27;;;;;;;21.27;18.35;;;;;;;3.66;88.71;99442.78;5036558;28;20883;-89
2021/12/26 01:08:52;;;;;;;20.27;18.00;;;;;;;3.81;88.69;99439.75;5045594;28;20383;-88
2021/12/26 01:11:35;;;;;;;20.67;18.47;;;;;;;3.83;87.96;99435.78;5052623;28;20464;-89
2021/12/26 01:14:04;;;;;;;21.42;18.80;;;;;;;3.83;88.22;99438.47;5041295;28;20780;-89
2021/12/26 01:16:30;;;;;;;20.73;18.40;;;;;;;3.93;87.67;99436.06;5048858;28;20416;-89
2021/12/26 01:19:06;;;;;;;21.45;18.60;;;;;;;3.87;88.35;99447.69;5043621;28;20429;-88
2021/12/26 01:21:31;;;;;;;20.75;18.58;;;;;;;3.87;88.21;99441.50;5047877;28;20393;-89
2021/12/26 01:24:01;;;;;;;20.07;17.67;;;;;;;3.85;87.99;99439.06;5047162;28;20883;-90
2021/12/26 01:26:28;;;;;;;19.13;17.02;;;;;;;3.88;87.84;99448.53;5033101;28;20399;-90
2021/12/26 01:28:54;;;;;;;19.40;17.20;;;;;;;3.81;88.32;99445.09;5037474;28;20416;-89
2021/12/26 01:31:20;;;;;;;19.75;17.48;;;;;;;3.77;87.63;99447.41;5038538;28;20444;-89
2021/12/26 01:33:52;;;;;;;19.90;17.80;;;;;;;3.76;88.11;99452.97;5035026;28;20887;-89
2021/12/26 01:36:17;;;;;;;20.95;18.67;;;;;;;3.85;88.20;99452.47;5048430;28;20459;-88
2021/12/26 01:38:43;;;;;;;20.00;17.83;;;;;;;3.94;87.98;99453.78;5042463;28;20418;-89
2021/12/26 01:41:10;;;;;;;20.30;17.97;;;;;;;3.87;87.62;99449.56;5047080;28;20409;-88
2021/12/26 01:43:38;;;;;;;20.37;17.67;;;;;;;3.79;88.13;99452.56;5035141;28;20668;-88
2021/12/26 01:46:04;;;;;;;22.73;18.40;;;;;;;3.74;88.61;99458.59;5049202;28;20402;-89
2021/12/26 01:48:30;;;;;;;20.48;18.33;;;;;;;3.79;87.91;99449.88;5042429;28;20410;-89
2021/12/26 01:50:55;;;;;;;23.60;18.13;;;;;;;3.77;88.13;99450.09;5031707;28;20402;-89
2021/12/26 01:53:24;;;;;;;21.07;18.87;;;;;;;3.74;88.35;99447.03;5048727;28;20408;-88
2021/12/26 01:55:52;;;;;;;21.33;18.75;;;;;;;3.81;88.48;99448.59;5037660;28;20459;-89
2021/12/26 01:58:21;;;;;;;20.50;18.33;;;;;;;3.89;87.63;99444.78;5041208;28;20456;-89
2021/12/26 02:00:58;;;;;;;19.85;17.75;;;;;;;3.80;87.83;99443.44;5036564;28;20416;-88
2021/12/26 02:03:24;;;;;;;20.60;18.50;;;;;;;3.69;88.29;99450.38;5035369;28;20396;-88
2021/12/26 02:05:49;;;;;;;20.98;18.70;;;;;;;3.67;88.17;99450.63;5048556;28;20491;-86
2021/12/26 02:08:15;;;;;;;21.10;18.90;;;;;;;3.86;87.86;99455.94;5040124;28;20396;-88
2021/12/26 02:10:40;;;;;;;20.53;18.27;;;;;;;3.88;87.51;99453.88;5041904;28;20884;-88
2021/12/26 02:13:06;;;;;;;20.43;18.23;;;;;;;3.80;87.56;99454.19;5032411;28;20391;-88
2021/12/26 02:15:31;;;;;;;22.93;19.63;;;;;;;3.72;88.20;99447.28;5034329;28;20673;-88
2021/12/26 02:17:57;;;;;;;21.80;19.47;;;;;;;3.80;88.02;99446.13;5039587;28;20396;-89
2021/12/26 02:20:38;;;;;;;22.57;20.13;;;;;;;3.73;87.99;99451.56;5036151;28;20429;-89
2021/12/26 02:23:27;;;;;;;21.15;19.02;;;;;;;3.54;88.22;99448.09;5030869;28;20430;-89
2021/12/26 02:28:38;;;;;;;21.85;18.85;;;;;;;3.64;88.31;99445.72;5032046;28;20395;-88
2021/12/26 02:31:05;;;;;;;22.52;20.10;;;;;;;3.64;87.88;99452.94;5045830;28;20403;-88
2021/12/26 02:33:30;;;;;;;21.33;18.50;;;;;;;3.73;87.83;99456.94;5032223;28;20413;-88
2021/12/26 02:35:56;;;;;;;22.05;19.15;;;;;;;3.76;87.80;99452.97;5044332;28;20401;-87
2021/12/26 02:38:21;;;;;;;21.43;18.73;;;;;;;3.70;87.88;99448.53;5040279;28;20409;-88
2021/12/26 02:40:48;;;;;;;22.97;18.90;;;;;;;3.75;87.91;99448.69;5035077;28;20416;-88
2021/12/26 02:43:16;;;;;;;22.77;18.95;;;;;;;3.76;87.71;99447.63;5042674;28;20399;-88
2021/12/26 02:45:42;;;;;;;22.80;18.88;;;;;;;3.74;87.98;99447.88;5034943;28;20396;-88
2021/12/26 02:48:09;;;;;;;22.60;19.98;;;;;;;3.70;88.26;99454.72;5031782;28;20537;-89
2021/12/26 02:50:34;;;;;;;22.23;18.40;;;;;;;3.78;87.57;99454.41;5039205;28;20403;-89
2021/12/26 02:53:02;;;;;;;23.37;19.00;;;;;;;3.66;87.60;99442.78;5033893;28;20413;-89
2021/12/26 02:55:28;;;;;;;22.65;19.10;;;;;;;3.60;87.67;99441.03;5031848;28;20757;-88
2021/12/26 02:58:00;;;;;;;22.15;19.08;;;;;;;3.48;88.48;99440.97;5046597;28;20895;-88
2021/12/26 03:00:28;;;;;;;21.30;18.50;;;;;;;3.36;88.73;99437.38;5032063;28;20418;-89
2021/12/26 03:02:55;;;;;;;23.60;19.20;;;;;;;3.40;88.91;99443.09;5038743;28;20410;-88
2021/12/26 03:05:25;;;;;;;22.25;19.10;;;;;;;3.46;88.33;99445.72;5054037;28;20407;-89
2021/12/26 03:07:51;;;;;;;22.45;19.40;;;;;;;3.48;88.00;99445.50;5043311;28;20399;-89
2021/12/26 03:10:23;;;;;;;21.52;18.98;;;;;;;3.55;88.13;99446.25;5035208;28;20404;-89
2021/12/26 03:12:53;;;;;;;21.23;18.93;;;;;;;3.62;88.29;99442.44;5049412;28;20432;-87
2021/12/26 03:15:19;;;;;;;21.58;19.25;;;;;;;3.58;88.34;99435.91;5031686;28;20826;-88
2021/12/26 03:17:44;;;;;;;23.35;19.02;;;;;;;3.63;88.02;99438.72;5041468;28;20405;-89
2021/12/26 03:20:17;;;;;;;21.43;19.07;;;;;;;3.57;87.85;99444.97;5031335;28;20422;-89
2021/12/26 03:22:44;;;;;;;22.88;19.27;;;;;;;3.59;87.58;99447.41;5031834;28;20412;-88
2021/12/26 03:25:14;;;;;;;23.48;19.45;;;;;;;3.60;87.71;99447.19;5043931;28;20389;-89
2021/12/26 03:27:40;;;;;;;22.25;19.00;;;;;;;3.59;87.77;99447.41;5056542;28;20399;-88
2021/12/26 03:30:07;;;;;;;25.17;19.33;;;;;;;3.63;87.86;99446.75;5038460;28;20414;-89
2021/12/26 03:32:32;;;;;;;23.63;19.35;;;;;;;3.69;87.74;99449.59;5031490;28;20386;-87
2021/12/26 03:34:57;;;;;;;23.80;20.03;;;;;;;3.67;88.04;99450.63;5043599;28;20864;-88
2021/12/26 03:37:23;;;;;;;24.40;19.40;;;;;;;3.76;87.85;99453.81;5047156;28;20484;-88
2021/12/26 03:39:48;;;;;;;23.45;19.08;;;;;;;3.66;87.55;99456.19;5044242;28;20423;-88
2021/12/26 03:42:14;;;;;;;20.97;18.77;;;;;;;3.67;87.80;99455.16;5049630;28;20402;-88
2021/12/26 03:44:39;;;;;;;23.57;18.93;;;;;;;3.66;87.77;99448.97;5042445;28;20441;-88
2021/12/26 03:47:05;;;;;;;21.83;18.87;;;;;;;3.78;87.52;99448.22;5040075;28;20436;-89
2021/12/26 03:49:30;;;;;;;20.48;18.27;;;;;;;3.60;87.54;99452.56;5035973;28;20394;-85
2021/12/26 03:51:55;;;;;;;22.00;19.63;;;;;;;3.55;87.91;99449.75;5037181;28;20949;-88
2021/12/26 03:54:21;;;;;;;22.83;19.23;;;;;;;3.63;87.61;99456.66;5049696;28;20393;-88
2021/12/26 03:56:46;;;;;;;21.63;19.23;;;;;;;3.62;87.79;99447.78;5041038;28;20870;-88
2021/12/26 03:59:12;;;;;;;22.80;19.03;;;;;;;3.72;87.83;99449.13;5048434;28;20489;-88
2021/12/26 04:01:37;;;;;;;23.25;18.42;;;;;;;3.68;87.36;99451.44;5040054;28;20853;-87
2021/12/26 04:04:03;;;;;;;21.93;18.97;;;;;;;3.65;87.78;99452.69;5034303;28;20893;-87
2021/12/26 04:06:28;;;;;;;23.77;18.13;;;;;;;3.68;87.69;99451.44;5034575;28;20452;-88
2021/12/26 04:08:54;;;;;;;21.03;18.83;;;;;;;3.69;87.55;99453.06;5060246;28;20408;-88
2021/12/26 04:11:19;;;;;;;21.67;18.87;;;;;;;3.77;87.53;99449.28;5053413;28;20411;-88
2021/12/26 04:13:44;;;;;;;22.15;18.60;;;;;;;3.78;87.24;99451.75;5071869;28;20755;-88
2021/12/26 04:16:10;;;;;;;20.57;18.43;;;;;;;3.81;87.45;99453.13;5061975;28;20386;-89
2021/12/26 04:18:35;;;;;;;23.17;18.43;;;;;;;3.82;87.51;99455.56;5038063;28;20745;-88
2021/12/26 04:21:01;;;;;;;22.73;18.70;;;;;;;3.72;87.45;99452.63;5046753;28;20399;-88
2021/12/26 04:23:27;;;;;;;21.87;19.47;;;;;;;3.74;87.24;99452.41;5036061;28;20403;-88
2021/12/26 04:25:52;;;;;;;23.27;19.67;;;;;;;3.75;87.92;99449.50;5039066;28;20404;-87
2021/12/26 04:28:19;;;;;;;19.53;17.53;;;;;;;3.81;87.01;99453.97;5040574;28;20414;-88
2021/12/26 04:30:45;;;;;;;22.00;18.35;;;;;;;3.79;87.21;99442.63;5036638;28;20408;-87
2021/12/26 04:33:11;;;;;;;19.80;17.80;;;;;;;3.74;87.56;99447.03;5033929;28;20383;-88
2021/12/26 04:35:36;;;;;;;22.83;18.55;;;;;;;3.62;87.61;99447.00;5037828;28;20403;-89
2021/12/26 04:38:02;;;;;;;22.43;18.60;;;;;;;3.67;87.90;99447.13;5037675;28;20408;-88
2021/12/26 04:40:27;;;;;;;19.57;17.17;;;;;;;3.69;88.14;99447.69;5042143;28;20413;-89
2021/12/26 04:42:52;;;;;;;22.27;18.00;;;;;;;3.65;87.78;99447.34;5041867;28;20399;-89
2021/12/26 04:45:18;;;;;;;20.30;17.37;;;;;;;3.55;87.75;99455.09;5052218;28;20395;-87
2021/12/26 04:47:44;;;;;;;19.45;17.38;;;;;;;3.69;88.20;99450.38;5045886;28;20798;-88
2021/12/26 04:50:12;;;;;;;21.58;18.42;;;;;;;3.67;87.27;99445.25;5061371;28;20401;-88
2021/12/26 04:52:41;;;;;;;20.02;17.90;;;;;;;3.74;87.74;99449.72;5042504;28;20401;-88
2021/12/26 04:55:07;;;;;;;21.70;17.98;;;;;;;3.83;87.51;99457.22;5045250;28;20395;-88
2021/12/26 04:57:33;;;;;;;21.33;18.17;;;;;;;3.68;87.85;99446.09;5050381;28;20937;-88
2021/12/26 04:59:58;;;;;;;20.53;17.97;;;;;;;3.73;87.34;99454.25;5046343;28;20417;-88
2021/12/26 05:02:25;;;;;;;20.83;17.90;;;;;;;3.63;87.29;99453.97;5062511;28;20410;-88
2021/12/26 05:04:51;;;;;;;19.70;17.60;;;;;;;3.55;87.11;99460.47;5048020;28;20423;-87
2021/12/26 05:07:17;;;;;;;21.35;17.35;;;;;;;3.57;87.54;99455.69;5049583;28;20756;-88
2021/12/26 05:09:45;;;;;;;21.73;18.60;;;;;;;3.61;87.27;99459.56;5057134;28;20400;-89
2021/12/26 05:12:10;;;;;;;19.88;17.02;;;;;;;3.63;87.41;99459.31;5050256;28;20486;-88
2021/12/26 05:14:36;;;;;;;20.97;18.67;;;;;;;3.67;87.28;99457.84;5043411;28;20433;-88
2021/12/26 05:17:01;;;;;;;23.67;17.70;;;;;;;3.76;86.82;99450.31;5044042;28;20800;-86
2021/12/26 05:19:26;;;;;;;20.87;18.67;;;;;;;3.80;86.50;99460.34;5043485;28;20470;-89
2021/12/26 05:21:51;;;;;;;22.20;18.80;;;;;;;3.75;87.02;99459.41;5041217;28;20411;-89
2021/12/26 05:24:17;;;;;;;20.47;17.90;;;;;;;3.81;87.16;99461.19;5054565;28;20410;-88
2021/12/26 05:26:42;;;;;;;20.27;17.63;;;;;;;3.80;86.93;99460.34;5046833;28;20394;-87
2021/12/26 05:29:07;;;;;;;20.73;18.00;;;;;;;3.71;86.36;99461.72;5043617;28;20422;-87
2021/12/26 05:31:33;;;;;;;20.48;17.70;;;;;;;3.74;86.64;99465.78;5056959;28;20396;-89
2021/12/26 05:33:58;;;;;;;21.07;18.23;;;;;;;3.73;86.82;99462.28;5044865;28;20390;-88
2021/12/26 05:36:25;;;;;;;20.50;17.90;;;;;;;3.71;87.16;99459.03;5046977;28;20401;-89
2021/12/26 05:38:50;;;;;;;19.38;16.77;;;;;;;3.76;86.79;99461.03;5043495;28;20414;-89
2021/12/26 05:41:15;;;;;;;20.13;17.90;;;;;;;3.73;87.08;99459.63;5050016;28;20447;-88
2021/12/26 05:43:41;;;;;;;22.88;17.75;;;;;;;3.76;86.91;99461.03;5033294;28;20413;-88
2021/12/26 05:46:06;;;;;;;19.95;17.52;;;;;;;3.73;86.69;99453.44;5050808;28;20576;-88
2021/12/26 05:48:32;;;;;;;18.80;16.90;;;;;;;3.73;86.63;99448.91;5049801;28;20952;-88
2021/12/26 05:50:57;;;;;;;18.97;16.97;;;;;;;3.70;86.94;99454.72;5065869;28;20399;-88
2021/12/26 05:53:22;;;;;;;19.52;17.42;;;;;;;3.73;86.84;99454.25;5054173;28;20429;-88
2021/12/26 05:55:47;;;;;;;19.27;16.87;;;;;;;3.71;86.38;99459.03;5063785;28;20406;-88
2021/12/26 05:58:13;;;;;;;20.17;17.40;;;;;;;3.76;86.50;99448.44;5058275;28;20888;-88
2021/12/26 06:00:38;;;;;;;19.63;17.27;;;;;;;3.84;86.32;99447.31;5053772;28;20413;-88
2021/12/26 06:03:03;;;;;;;22.10;17.83;;;;;;;3.81;86.51;99453.97;5045812;28;20859;-89
2021/12/26 06:05:29;;;;;;;21.83;18.43;;;;;;;3.83;86.47;99451.88;5043104;28;20448;-88
2021/12/26 06:07:54;;;;;;;21.43;18.60;;;;;;;3.73;86.69;99448.06;5054196;28;20478;-89
2021/12/26 06:10:19;;;;;;;22.80;18.80;;;;;;;3.70;86.86;99452.03;5051014;28;20413;-89
2021/12/26 06:12:45;;;;;;;21.13;17.50;;;;;;;3.56;87.44;99455.91;5054218;28;20401;-88
2021/12/26 06:15:11;;;;;;;21.47;18.37;;;;;;;3.60;87.48;99449.88;5045553;28;20403;-89
2021/12/26 06:17:36;;;;;;;23.27;19.40;;;;;;;3.62;87.72;99460.38;5042055;28;20441;-88
2021/12/26 06:20:04;;;;;;;21.87;18.10;;;;;;;3.62;87.34;99458.50;5043560;28;20484;-89
2021/12/26 06:22:33;;;;;;;21.17;18.70;;;;;;;3.77;87.52;99458.13;5052206;28;20570;-89
2021/12/26 06:24:58;;;;;;;22.20;18.52;;;;;;;3.82;86.97;99450.22;5064740;28;20492;-89
2021/12/26 06:27:24;;;;;;;21.60;18.37;;;;;;;3.77;86.71;99454.63;5053493;28;20487;-88
2021/12/26 06:29:49;;;;;;;20.48;18.08;;;;;;;3.65;87.68;99458.03;5060797;28;20397;-90
2021/12/26 06:32:14;;;;;;;21.97;18.73;;;;;;;3.78;86.95;99462.47;5047968;28;21051;-89
2021/12/26 06:34:40;;;;;;;21.83;17.97;;;;;;;3.87;86.97;99462.97;5045491;28;20412;-88
2021/12/26 06:37:05;;;;;;;24.67;18.73;;;;;;;3.84;86.70;99464.22;5050385;28;20462;-89
2021/12/26 06:39:31;;;;;;;20.33;18.20;;;;;;;3.75;86.93;99470.94;5039178;28;20423;-89
2021/12/26 06:41:56;;;;;;;22.07;18.67;;;;;;;3.77;86.92;99468.03;5033639;28;20750;-89
2021/12/26 06:44:22;;;;;;;21.30;18.60;;;;;;;3.83;87.21;99469.81;5038828;28;20792;-89
2021/12/26 06:46:47;;;;;;;23.17;19.47;;;;;;;3.84;87.12;99458.88;5042151;28;20998;-88
2021/12/26 06:49:16;;;;;;;20.37;18.17;;;;;;;3.88;86.75;99460.06;5040793;28;20411;-89
2021/12/26 06:51:42;;;;;;;22.75;18.75;;;;;;;3.69;86.64;99457.63;5046457;28;20427;-89
2021/12/26 06:54:07;;;;;;;22.67;18.83;;;;;;;3.64;87.35;99463.66;5040803;28;20749;-89
2021/12/26 06:56:32;;;;;;;24.00;20.20;;;;;;;3.63;87.47;99467.38;5037055;28;20395;-88
2021/12/26 06:58:58;;;;;;;24.37;19.67;;;;;;;3.64;87.35;99472.50;5037265;28;20432;-88
2021/12/26 07:01:23;;;;;;;23.58;19.92;;;;;;;3.70;87.32;99480.69;5034823;28;20406;-88
2021/12/26 07:03:48;;;;;;;21.63;17.87;;;;;;;3.72;87.39;99482.13;5036786;28;20959;-89
2021/12/26 07:06:14;;;;;;;21.87;18.53;;;;;;;3.75;86.98;99472.81;5042423;28;20475;-88
2021/12/26 07:08:39;;;;;;;23.87;19.20;;;;;;;3.77;86.81;99476.88;5034728;28;20407;-87
2021/12/26 07:11:04;;;;;;;24.53;18.77;;;;;;;3.85;86.96;99478.44;5032575;28;20406;-88
2021/12/26 07:13:30;;;;;;;23.43;18.83;;;;;;;3.90;86.48;99478.59;5047526;28;20397;-89
2021/12/26 07:15:55;;;;;;;22.47;19.77;;;;;;;3.92;86.20;99479.97;5043201;28;20420;-89
2021/12/26 07:18:20;;;;;;;23.83;19.27;;;;;;;3.80;85.91;99489.84;5047096;28;20455;-88
2021/12/26 07:20:46;;;;;;;21.97;19.20;;;;;;;3.76;86.73;99485.97;5047016;28;20413;-88
2021/12/26 07:23:11;;;;;;;27.17;19.50;;;;;;;3.85;86.67;99490.00;5049598;28;20420;-89
2021/12/26 07:25:36;;;;;;;23.73;19.70;;;;;;;3.89;86.27;99490.34;5040941;28;20456;-88
2021/12/26 07:28:03;;;;;;;21.77;18.73;;;;;;;3.86;86.50;99490.78;5052223;28;20403;-88
2021/12/26 07:30:29;;;;;;;23.35;19.85;;;;;;;3.87;86.31;99489.75;5040087;28;20477;-89
2021/12/26 07:32:54;;;;;;;22.40;18.73;;;;;;;3.93;86.48;99491.53;5045125;28;20468;-89
2021/12/26 07:35:19;;;;;;;22.57;19.43;;;;;;;3.88;86.35;99491.41;5050978;28;20401;-88
2021/12/26 07:37:46;;;;;;;26.40;19.10;;;;;;;3.92;86.56;99490.72;5049537;28;20417;-89
2021/12/26 07:40:11;;;;;;;23.30;18.53;;;;;;;3.81;86.59;99491.47;5057162;28;20421;-89
2021/12/26 07:42:37;;;;;;;22.90;19.80;;;;;;;3.78;87.08;99489.25;5052855;28;20454;-89
2021/12/26 07:45:02;;;;;;;24.47;20.13;;;;;;;3.86;86.49;99494.28;5045885;28;20461;-88
2021/12/26 07:47:28;;;;;;;25.00;20.17;;;;;;;3.78;86.80;99486.56;5064767;28;20511;-88
2021/12/26 07:49:53;;;;;;;26.33;20.47;;;;;;;3.83;86.59;99494.75;5062403;28;20919;-87
2021/12/26 07:52:23;;;;;;;24.63;19.67;;;;;;;3.89;86.56;99493.03;5052515;28;20914;-89
2021/12/26 07:54:49;;;;;;;24.80;20.27;;;;;;;3.90;86.67;99500.03;5053406;28;20449;-88
2021/12/26 07:57:14;;;;;;;27.37;19.73;;;;;;;3.87;87.06;99500.47;5053360;28;20393;-88
2021/12/26 07:59:40;;;;;;;24.07;20.60;;;;;;;3.97;86.79;99500.75;5045510;28;20500;-89
2021/12/26 08:02:06;;;;;;;28.45;21.20;;;;;;;3.95;86.49;99508.22;5053575;28;20394;-89
2021/12/26 08:04:31;;;;;;;24.13;20.60;;;;;;;3.93;86.40;99508.44;5047779;28;20386;-85
2021/12/26 08:06:58;;;;;;;25.30;20.97;;;;;;;3.93;86.50;99504.94;5044217;28;20718;-80
2021/12/26 08:09:23;;;;;;;24.10;19.88;;;;;;;3.89;86.63;99506.41;5044197;28;20405;-90
2021/12/26 08:11:49;;;;;;;24.03;20.37;;;;;;;3.90;86.63;99503.53;5047032;28;21027;-89
2021/12/26 08:14:15;;;;;;;24.83;19.50;;;;;;;3.96;86.97;99499.13;5049276;28;20410;-89
2021/12/26 08:16:40;;;;;;;23.23;19.10;;;;;;;3.80;86.96;99505.09;5053249;28;20393;-85
2021/12/26 08:19:07;;;;;;;24.07;19.03;;;;;;;3.90;87.22;99505.38;5045918;28;20413;-83
2021/12/26 08:21:33;;;;;;;24.02;20.33;;;;;;;3.93;86.97;99508.44;5044619;28;20419;-86
2021/12/26 08:23:58;;;;;;;23.37;19.73;;;;;;;3.96;87.02;99513.34;5047318;28;20454;-90
2021/12/26 08:26:24;;;;;;;23.43;20.10;;;;;;;3.97;87.37;99506.13;5051043;28;20402;-88
2021/12/26 08:28:49;;;;;;;24.17;19.13;;;;;;;3.99;86.88;99509.38;5051921;28;20475;-88
2021/12/26 08:31:16;;;;;;;26.57;21.00;;;;;;;4.04;87.13;99505.00;5050849;28;20538;-86
2021/12/26 08:33:42;;;;;;;26.33;20.98;;;;;;;4.13;86.57;99505.50;5057752;28;20401;-86
2021/12/26 08:36:07;;;;;;;23.77;20.90;;;;;;;3.98;86.77;99505.91;5044814;28;20465;-88
2021/12/26 08:38:33;;;;;;;27.10;22.13;;;;;;;3.94;87.00;99503.91;5056865;28;20714;-86
2021/12/26 08:40:58;;;;;;;25.95;20.95;;;;;;;4.02;87.19;99507.06;5051153;28;20976;-88
2021/12/26 08:43:24;;;;;;;31.02;21.95;;;;;;;4.00;87.16;99519.06;5045356;28;20748;-89
2021/12/26 08:45:50;;;;;;;27.20;22.05;;;;;;;4.10;86.91;99516.69;5044659;28;20761;-88
2021/12/26 08:48:16;;;;;;;32.27;23.93;;;;;;;4.07;86.89;99511.78;5052576;28;20428;-89
2021/12/26 08:50:43;;;;;;;31.00;23.33;;;;;;;4.12;86.79;99518.09;5059963;28;20417;-89
2021/12/26 08:53:08;;;;;;;29.93;22.63;;;;;;;4.12;86.96;99523.44;5060530;28;20978;-89
2021/12/26 08:55:34;;;;;;;27.60;22.37;;;;;;;4.20;86.47;99514.28;5048570;28;20401;-89
2021/12/26 08:57:59;;;;;;;25.17;20.77;;;;;;;4.17;86.68;99518.25;5047891;28;20439;-91
2021/12/26 09:00:25;;;;;;;25.93;20.60;;;;;;;4.19;86.33;99520.69;5038511;28;20421;-88
2021/12/26 09:02:51;;;;;;;29.48;22.58;;;;;;;4.19;86.49;99513.47;5049853;28;20401;-87
2021/12/26 09:05:16;;;;;;;26.65;20.83;;;;;;;4.19;87.08;99526.88;5048598;28;20461;-88
2021/12/26 09:07:42;;;;;;;24.13;20.37;;;;;;;4.27;86.66;99532.97;5048440;28;20413;-86
2021/12/26 09:10:10;;;;;;;24.23;19.87;;;;;;;4.27;86.44;99535.66;5048579;28;20403;-83
2021/12/26 09:12:35;;;;;;;27.77;20.75;;;;;;;4.23;86.87;99529.91;5037273;28;20410;-88
2021/12/26 09:15:01;;;;;;;27.50;21.60;;;;;;;4.19;86.93;99529.56;5049449;28;20403;-87
2021/12/26 09:17:27;;;;;;;27.60;20.75;;;;;;;4.28;86.68;99530.03;5053160;28;20405;-89
2021/12/26 09:19:52;;;;;;;23.93;20.50;;;;;;;4.27;86.57;99519.56;5039124;28;20413;-87
2021/12/26 09:22:17;;;;;;;24.70;20.47;;;;;;;4.34;86.72;99531.84;5042030;28;20453;-91
2021/12/26 09:24:45;;;;;;;27.33;21.50;;;;;;;4.39;86.53;99533.84;5052077;28;20401;-84
2021/12/26 09:27:12;;;;;;;30.15;22.27;;;;;;;4.39;85.78;99534.66;5043883;28;20408;-89
2021/12/26 09:29:38;;;;;;;29.10;22.60;;;;;;;4.41;86.10;99537.91;5051449;28;20434;-89
2021/12/26 09:32:04;;;;;;;28.07;22.33;;;;;;;4.45;85.86;99535.59;5054306;28;20780;-89
2021/12/26 09:34:33;;;;;;;27.17;22.10;;;;;;;4.38;86.05;99542.94;5052724;28;20898;-88
2021/12/26 09:37:00;;;;;;;28.50;22.30;;;;;;;4.38;86.07;99534.91;5056871;28;20855;-88
2021/12/26 09:39:26;;;;;;;28.25;21.38;;;;;;;4.45;86.38;99527.56;5060748;28;20511;-89
2021/12/26 09:41:51;;;;;;;32.17;23.20;;;;;;;4.50;86.10;99533.88;5048381;28;20502;-88
2021/12/26 09:44:17;;;;;;;26.47;21.30;;;;;;;4.55;85.92;99536.69;5048303;28;20433;-89
2021/12/26 09:46:43;;;;;;;29.13;22.45;;;;;;;4.50;86.03;99533.06;5054710;28;20810;-89
2021/12/26 09:49:08;;;;;;;29.48;21.60;;;;;;;4.58;85.87;99533.56;5045109;28;20419;-89
2021/12/26 09:51:34;;;;;;;30.80;22.57;;;;;;;4.47;85.45;99538.88;5042935;28;20411;-89
2021/12/26 09:53:59;;;;;;;32.10;23.53;;;;;;;4.48;85.92;99545.91;5044442;28;20406;-89
2021/12/26 09:56:26;;;;;;;29.17;22.90;;;;;;;4.57;86.20;99540.00;5060398;28;20409;-88
2021/12/26 09:59:02;;;;;;;27.58;21.85;;;;;;;4.51;86.00;99540.06;5052813;28;20411;-88
2021/12/26 10:01:42;;;;;;;27.90;22.10;;;;;;;4.43;86.06;99540.38;5035454;28;20912;-88
2021/12/26 10:04:23;;;;;;;27.73;20.85;;;;;;;4.48;86.43;99532.50;5051017;28;20409;-89
2021/12/26 10:06:52;;;;;;;30.55;22.00;;;;;;;4.41;86.25;99521.03;5051110;28;20410;-88
2021/12/26 10:09:18;;;;;;;28.75;21.25;;;;;;;4.48;86.57;99524.44;5053808;28;20509;-89
2021/12/26 10:11:50;;;;;;;30.40;21.85;;;;;;;4.53;86.69;99517.34;5055152;28;20452;-88
2021/12/26 10:14:18;;;;;;;28.00;21.48;;;;;;;4.61;86.09;99517.00;5057020;28;20401;-87
2021/12/26 10:16:49;;;;;;;27.08;21.48;;;;;;;4.62;86.36;99510.59;5043478;28;20405;-88
2021/12/26 10:19:15;;;;;;;27.98;22.00;;;;;;;4.64;86.21;99511.16;5048294;28;20417;-88
2021/12/26 10:21:49;;;;;;;28.38;21.52;;;;;;;4.75;85.53;99506.06;5067009;28;20396;-89
2021/12/26 10:24:21;;;;;;;26.45;20.52;;;;;;;4.79;86.03;99509.91;5057140;28;20397;-88
2021/12/26 10:27:09;;;;;;;28.65;22.35;;;;;;;4.79;85.11;99508.06;5058453;28;20886;-88
2021/12/26 10:29:35;;;;;;;27.83;21.98;;;;;;;4.66;85.36;99509.09;5050238;28;20446;-88
2021/12/26 10:32:10;;;;;;;27.15;21.13;;;;;;;4.58;86.24;99501.34;5054057;28;20410;-89
2021/12/26 10:34:42;;;;;;;29.33;22.63;;;;;;;4.45;86.48;99493.50;5041900;28;20404;-89
2021/12/26 10:37:30;;;;;;;31.27;23.13;;;;;;;4.62;85.98;99499.84;5035973;28;20403;-89
2021/12/26 10:40:21;;;;;;;28.00;22.48;;;;;;;4.78;85.94;99494.84;5035949;28;20456;-87
2021/12/26 10:42:50;;;;;;;27.65;22.70;;;;;;;4.87;85.96;99494.31;5052184;28;20396;-90
2021/12/26 10:45:19;;;;;;;25.98;22.08;;;;;;;4.86;85.74;99490.00;5049707;28;20911;-90
2021/12/26 10:47:50;;;;;;;28.75;22.23;;;;;;;4.84;85.90;99491.28;5033433;28;20466;-91
2021/12/26 10:50:19;;;;;;;29.58;23.15;;;;;;;4.97;85.13;99491.84;5039472;28;20409;-91
2021/12/26 10:52:55;;;;;;;29.98;23.73;;;;;;;4.96;85.17;99489.41;5042858;28;20401;-91
2021/12/26 10:55:42;;;;;;;35.80;23.80;;;;;;;4.92;85.38;99489.06;5036341;28;20407;-91
2021/12/26 10:58:13;;;;;;;35.50;25.63;;;;;;;5.00;84.89;99486.03;5045921;28;20402;-92
2021/12/26 11:00:42;;;;;;;34.55;24.95;;;;;;;5.04;85.02;99489.06;5043543;28;20445;-90
2021/12/26 11:03:10;;;;;;;34.95;24.92;;;;;;;5.05;84.78;99479.97;5032186;28;20425;-91
2021/12/26 11:05:43;;;;;;;34.45;25.02;;;;;;;5.02;85.01;99478.56;5034219;28;20415;-91
2021/12/26 11:08:29;;;;;;;35.17;25.17;;;;;;;4.99;85.04;99479.03;5029477;28;20801;-91
2021/12/26 11:10:55;;;;;;;41.75;28.75;;;;;;;5.06;84.83;99484.28;5027418;28;20497;-91
2021/12/26 11:13:28;;;;;;;36.58;25.05;;;;;;;5.02;84.49;99483.09;5037540;28;20913;-91
2021/12/26 11:15:56;;;;;;;33.80;24.10;;;;;;;4.97;84.95;99480.31;5029681;28;20517;-90
2021/12/26 11:18:22;;;;;;;32.92;24.10;;;;;;;4.94;85.27;99486.16;5032110;28;20513;-91
2021/12/26 11:21:08;;;;;;;36.63;27.05;;;;;;;5.01;85.37;99479.59;5028830;28;20452;-89
2021/12/26 11:23:38;;;;;;;34.80;25.85;;;;;;;5.01;85.29;99482.28;5042873;28;20437;-87
2021/12/26 11:26:06;;;;;;;35.27;24.97;;;;;;;5.05;85.28;99478.09;5046938;28;20437;-90